Time;durP1;ratioP1;P1;durP2;ratioP2;P2;SDS_P1;SDS_P2;PMS_P1;PMS_P2;Temp;Humidity;BMP_temperature;BMP_pressure;BME280_temperature;BME280_humidity;BME280_pressure;Samples;Min_cycle;Max_cycle;Signal;HPM_P1;HPM_P2
2021/05/08 00:02:22;;;;;;;2.75;1.10;;;16.60;56.60;;;;;;5040341;28;20072;-66
2021/05/08 00:04:48;;;;;;;2.15;1.00;;;16.60;56.70;;;;;;5052756;28;20021;-67
2021/05/08 00:07:13;;;;;;;3.05;1.40;;;16.60;56.60;;;;;;5054509;28;20648;-66
2021/05/08 00:09:39;;;;;;;2.65;1.30;;;16.60;56.60;;;;;;5053629;28;20693;-66
2021/05/08 00:12:05;;;;;;;2.67;1.02;;;16.60;56.70;;;;;;5052765;28;20391;-66
2021/05/08 00:14:30;;;;;;;2.78;1.25;;;16.60;56.70;;;;;;5034165;28;20524;-67
2021/05/08 00:16:56;;;;;;;2.70;1.23;;;16.60;56.70;;;;;;5047843;28;20045;-67
2021/05/08 00:19:22;;;;;;;3.25;1.40;;;16.60;56.70;;;;;;5044372;28;20029;-66
2021/05/08 00:21:48;;;;;;;4.78;1.30;;;16.50;56.70;;;;;;5070819;28;20513;-67
2021/05/08 00:24:14;;;;;;;2.70;1.27;;;16.50;56.70;;;;;;5054093;28;20033;-66
2021/05/08 00:26:39;;;;;;;3.50;1.30;;;16.50;56.70;;;;;;5058066;28;20381;-66
2021/05/08 00:29:05;;;;;;;3.75;1.27;;;16.50;56.80;;;;;;5061147;28;20064;-66
2021/05/08 00:31:31;;;;;;;2.75;1.30;;;16.50;56.80;;;;;;5044794;28;20071;-66
2021/05/08 00:33:56;;;;;;;3.08;1.20;;;16.50;56.80;;;;;;5052400;28;20017;-67
2021/05/08 00:36:22;;;;;;;2.83;1.23;;;16.50;56.80;;;;;;5042239;28;20506;-66
2021/05/08 00:38:48;;;;;;;2.58;1.27;;;16.50;56.90;;;;;;5056585;28;20056;-66
2021/05/08 00:41:13;;;;;;;4.05;1.23;;;16.40;56.90;;;;;;5044313;28;20113;-67
2021/05/08 00:43:39;;;;;;;3.95;1.35;;;16.40;56.80;;;;;;5054382;28;20024;-67
2021/05/08 00:46:04;;;;;;;2.25;1.20;;;16.40;56.90;;;;;;5062168;28;20484;-66
2021/05/08 00:48:32;;;;;;;2.88;1.23;;;16.40;56.90;;;;;;5052192;28;20039;-66
2021/05/08 00:50:58;;;;;;;2.38;1.20;;;16.40;56.90;;;;;;5034060;28;20061;-67
2021/05/08 00:53:24;;;;;;;2.90;1.38;;;16.40;57.00;;;;;;5057213;28;20024;-66
2021/05/08 00:55:51;;;;;;;3.97;1.40;;;16.40;57.00;;;;;;5037078;28;20378;-66
2021/05/08 00:58:20;;;;;;;2.95;1.23;;;16.40;57.10;;;;;;5034164;28;20533;-67
2021/05/08 01:00:48;;;;;;;4.00;1.42;;;16.40;57.00;;;;;;5054723;28;20484;-66
2021/05/08 01:03:14;;;;;;;2.88;1.20;;;16.30;57.00;;;;;;5052208;28;20491;-66
2021/05/08 01:05:39;;;;;;;2.75;1.33;;;16.30;57.00;;;;;;5050693;28;20035;-66
2021/05/08 01:08:05;;;;;;;3.28;1.27;;;16.30;57.10;;;;;;5051902;28;20452;-67
2021/05/08 01:10:31;;;;;;;3.67;1.30;;;16.30;57.20;;;;;;5051952;28;20025;-66
2021/05/08 01:12:59;;;;;;;3.22;1.30;;;16.30;57.20;;;;;;5051764;28;20025;-67
2021/05/08 01:15:26;;;;;;;3.03;1.35;;;16.30;57.20;;;;;;5033287;28;20372;-67
2021/05/08 01:17:52;;;;;;;3.33;1.30;;;16.30;57.10;;;;;;5052283;28;20119;-67
2021/05/08 01:20:18;;;;;;;4.13;1.45;;;16.20;57.00;;;;;;5063008;28;20024;-67
2021/05/08 01:22:44;;;;;;;2.47;1.30;;;16.20;57.10;;;;;;5071698;28;20039;-67
2021/05/08 01:25:14;;;;;;;2.78;1.30;;;16.20;57.00;;;;;;5068813;28;20108;-66
2021/05/08 01:27:48;;;;;;;2.72;1.40;;;16.20;57.00;;;;;;5070816;28;20032;-67
2021/05/08 01:30:16;;;;;;;5.40;1.50;;;16.20;57.10;;;;;;5057348;28;20033;-66
2021/05/08 01:32:42;;;;;;;3.08;1.45;;;16.20;57.10;;;;;;5069381;28;20029;-68
2021/05/08 01:35:08;;;;;;;4.43;1.58;;;16.10;57.20;;;;;;5053341;28;20035;-66
2021/05/08 01:37:34;;;;;;;4.20;1.60;;;16.10;57.10;;;;;;5053418;28;20037;-66
2021/05/08 01:40:07;;;;;;;4.07;1.52;;;16.10;57.20;;;;;;5033874;28;20048;-66
2021/05/08 01:42:33;;;;;;;4.00;1.60;;;16.10;57.20;;;;;;5051413;28;20438;-66
2021/05/08 01:45:25;;;;;;;2.70;1.20;;;16.10;57.30;;;;;;5054099;28;20064;-67
2021/05/08 01:47:52;;;;;;;3.03;1.33;;;16.00;57.30;;;;;;5052467;28;20139;-67
2021/05/08 01:50:20;;;;;;;3.33;1.50;;;16.00;57.30;;;;;;5053873;28;20431;-66
2021/05/08 01:52:46;;;;;;;3.38;1.30;;;16.00;57.40;;;;;;5051386;28;20028;-66
2021/05/08 01:55:26;;;;;;;2.95;1.48;;;16.00;57.40;;;;;;5070647;28;20051;-66
2021/05/08 01:57:54;;;;;;;3.40;1.53;;;16.10;57.50;;;;;;5033384;28;20029;-67
2021/05/08 02:00:30;;;;;;;3.13;1.63;;;16.00;57.40;;;;;;5052229;28;20269;-66
2021/05/08 02:02:57;;;;;;;2.58;1.55;;;16.00;57.60;;;;;;5051261;28;20032;-67
2021/05/08 02:05:26;;;;;;;3.10;1.58;;;16.00;57.50;;;;;;5050912;28;20426;-67
2021/05/08 02:07:51;;;;;;;3.25;1.52;;;15.80;57.90;;;;;;5068741;28;20078;-67
2021/05/08 02:10:17;;;;;;;4.90;1.73;;;15.90;57.60;;;;;;5064267;28;20033;-67
2021/05/08 02:12:43;;;;;;;2.85;1.48;;;15.90;57.50;;;;;;5033258;28;20021;-66
2021/05/08 02:15:11;;;;;;;2.88;1.40;;;16.00;57.50;;;;;;5051368;28;20040;-66
2021/05/08 02:17:38;;;;;;;3.58;1.58;;;15.90;57.50;;;;;;5068304;28;20487;-67
2021/05/08 02:20:10;;;;;;;2.85;1.58;;;16.00;58.10;;;;;;5049542;28;20033;-66
2021/05/08 02:22:36;;;;;;;3.00;1.42;;;15.90;57.50;;;;;;5038942;28;20028;-66
2021/05/08 02:25:02;;;;;;;2.25;1.40;;;15.90;57.60;;;;;;5048452;28;20078;-67
2021/05/08 02:27:28;;;;;;;4.78;1.58;;;15.90;57.60;;;;;;5054272;28;20029;-67
2021/05/08 02:29:54;;;;;;;4.65;1.70;;;15.90;57.60;;;;;;5050878;28;20029;-67
2021/05/08 02:32:19;;;;;;;3.63;1.70;;;15.90;57.60;;;;;;5050949;28;20044;-66
2021/05/08 02:34:45;;;;;;;3.90;1.90;;;15.90;57.60;;;;;;5032822;28;20516;-66
2021/05/08 02:37:10;;;;;;;3.72;1.60;;;15.90;57.60;;;;;;5054377;28;20056;-66
2021/05/08 02:39:36;;;;;;;5.63;1.73;;;15.80;57.70;;;;;;5045009;28;20459;-67
2021/05/08 02:42:02;;;;;;;2.70;1.42;;;15.80;57.60;;;;;;5063525;28;20077;-66
2021/05/08 02:44:27;;;;;;;3.70;1.70;;;15.80;57.60;;;;;;5074299;28;20021;-67
2021/05/08 02:46:53;;;;;;;2.70;1.60;;;15.80;57.70;;;;;;5074080;28;20043;-67
2021/05/08 02:49:18;;;;;;;4.05;1.63;;;15.80;57.70;;;;;;5061107;28;20485;-67
2021/05/08 02:51:44;;;;;;;4.32;1.65;;;15.80;57.80;;;;;;5054432;28;20037;-67
2021/05/08 02:54:10;;;;;;;4.15;1.60;;;15.80;57.70;;;;;;5054146;28;20079;-66
2021/05/08 02:56:35;;;;;;;3.63;1.63;;;15.80;57.80;;;;;;5063574;28;20028;-66
2021/05/08 02:59:01;;;;;;;3.47;1.95;;;15.70;57.60;;;;;;5073048;28;20023;-67
2021/05/08 03:01:26;;;;;;;3.08;1.70;;;15.80;57.80;;;;;;5070872;28;20040;-66
2021/05/08 03:03:52;;;;;;;4.38;1.90;;;15.70;57.70;;;;;;5037262;28;20075;-66
2021/05/08 03:06:17;;;;;;;3.63;1.80;;;15.70;57.80;;;;;;5053869;28;20029;-67
2021/05/08 03:08:43;;;;;;;3.63;2.03;;;15.70;57.70;;;;;;5043421;28;20025;-67
2021/05/08 03:11:08;;;;;;;2.92;1.70;;;15.70;57.90;;;;;;5074050;28;20031;-67
2021/05/08 03:13:34;;;;;;;4.80;2.30;;;15.60;57.80;;;;;;5067203;28;20021;-66
2021/05/08 03:16:00;;;;;;;4.25;1.83;;;15.60;57.80;;;;;;5055876;28;20021;-66
2021/05/08 03:18:26;;;;;;;4.45;2.10;;;15.60;57.90;;;;;;5072186;28;20040;-66
2021/05/08 03:20:51;;;;;;;2.92;1.80;;;15.60;57.90;;;;;;5057363;28;20045;-67
2021/05/08 03:23:17;;;;;;;4.47;2.20;;;15.60;57.90;;;;;;5056879;28;20162;-67
2021/05/08 03:25:42;;;;;;;3.78;2.10;;;15.60;58.00;;;;;;5049038;28;20017;-67
2021/05/08 03:28:08;;;;;;;4.03;2.05;;;15.60;58.10;;;;;;5053823;28;20021;-66
2021/05/08 03:30:33;;;;;;;4.68;1.88;;;15.60;57.90;;;;;;5035846;28;20400;-66
2021/05/08 03:32:59;;;;;;;4.75;2.40;;;15.60;58.00;;;;;;5054446;28;20029;-66
2021/05/08 03:35:24;;;;;;;4.00;2.05;;;15.60;58.10;;;;;;5053714;28;20028;-66
2021/05/08 03:37:50;;;;;;;3.42;1.73;;;15.50;58.00;;;;;;5035812;28;20484;-66
2021/05/08 03:40:16;;;;;;;3.80;1.90;;;15.60;58.20;;;;;;5044335;28;20025;-66
2021/05/08 03:42:41;;;;;;;3.50;1.77;;;15.60;58.10;;;;;;5042360;28;20021;-66
2021/05/08 03:45:07;;;;;;;6.63;2.10;;;15.60;58.10;;;;;;5053985;28;20391;-66
2021/05/08 03:47:33;;;;;;;3.22;2.20;;;15.50;58.10;;;;;;5052847;28;20033;-66
2021/05/08 03:49:58;;;;;;;5.60;1.90;;;15.50;58.20;;;;;;5060156;28;20101;-66
2021/05/08 03:52:24;;;;;;;3.00;1.90;;;15.50;58.10;;;;;;5073369;28;20021;-67
2021/05/08 03:54:50;;;;;;;3.50;2.05;;;15.50;58.20;;;;;;5070659;28;20028;-66
2021/05/08 03:57:16;;;;;;;4.82;1.90;;;15.50;58.30;;;;;;5053626;28;20510;-66
2021/05/08 03:59:41;;;;;;;5.03;2.03;;;15.50;58.30;;;;;;5035270;28;20101;-66
2021/05/08 04:02:07;;;;;;;3.38;2.00;;;15.50;58.20;;;;;;5035367;28;20032;-66
2021/05/08 04:04:32;;;;;;;4.75;2.03;;;15.50;58.30;;;;;;5052883;28;20025;-66
2021/05/08 04:06:58;;;;;;;4.53;2.33;;;15.50;58.30;;;;;;5053868;28;20036;-66
2021/05/08 04:09:23;;;;;;;3.63;1.80;;;15.50;58.20;;;;;;5035390;28;20029;-66
2021/05/08 04:11:49;;;;;;;4.25;2.08;;;15.50;58.20;;;;;;5068220;28;20024;-66
2021/05/08 04:14:14;;;;;;;5.68;2.17;;;15.40;58.10;;;;;;5052973;28;20079;-66
2021/05/08 04:16:40;;;;;;;4.15;2.30;;;15.50;58.20;;;;;;5036748;28;20039;-66
2021/05/08 04:19:05;;;;;;;4.57;2.10;;;15.50;58.10;;;;;;5047680;28;20119;-66
2021/05/08 04:21:32;;;;;;;4.70;2.30;;;15.50;58.00;;;;;;5057747;28;20078;-66
2021/05/08 04:23:58;;;;;;;3.53;2.17;;;15.50;58.10;;;;;;5072475;28;20484;-66
2021/05/08 04:26:25;;;;;;;4.22;2.35;;;15.50;58.00;;;;;;5061506;28;20041;-66
2021/05/08 04:28:50;;;;;;;5.28;2.47;;;15.40;58.10;;;;;;5034822;28;20032;-66
2021/05/08 04:31:16;;;;;;;4.38;2.22;;;15.40;58.10;;;;;;5059479;28;20033;-66
2021/05/08 04:33:41;;;;;;;6.15;2.50;;;15.40;58.10;;;;;;5051154;28;20012;-66
2021/05/08 04:36:07;;;;;;;4.75;2.47;;;15.40;58.10;;;;;;5063903;28;20036;-66
2021/05/08 04:38:33;;;;;;;5.60;2.35;;;15.40;58.00;;;;;;5034522;28;20029;-66
2021/05/08 04:40:58;;;;;;;4.55;2.35;;;15.40;57.90;;;;;;5053386;28;20025;-66
2021/05/08 04:43:24;;;;;;;5.40;3.00;;;15.40;58.00;;;;;;5034492;28;20078;-66
2021/05/08 04:45:50;;;;;;;7.93;3.25;;;15.40;57.70;;;;;;5054257;28;20029;-66
2021/05/08 04:48:26;;;;;;;4.28;2.70;;;15.40;58.00;;;;;;5052332;28;20024;-67
2021/05/08 04:50:53;;;;;;;5.38;3.00;;;15.40;58.00;;;;;;5069659;28;20134;-66
2021/05/08 04:53:19;;;;;;;5.05;3.13;;;15.40;57.90;;;;;;5071799;28;20025;-67
2021/05/08 04:55:46;;;;;;;4.40;2.50;;;15.40;57.80;;;;;;5070117;28;20106;-66
2021/05/08 04:58:12;;;;;;;4.75;2.40;;;15.50;57.90;;;;;;5071473;28;20031;-66
2021/05/08 05:00:38;;;;;;;5.43;2.50;;;15.50;57.80;;;;;;5053832;28;20048;-67
2021/05/08 05:03:04;;;;;;;5.07;2.70;;;15.50;57.70;;;;;;5071994;28;20025;-67
2021/05/08 05:05:29;;;;;;;6.63;2.63;;;15.50;57.50;;;;;;5069782;28;20480;-66
2021/05/08 05:07:55;;;;;;;4.32;2.60;;;15.50;57.40;;;;;;5053577;28;20029;-66
2021/05/08 05:10:21;;;;;;;4.03;2.60;;;15.50;57.30;;;;;;5071790;28;20028;-66
2021/05/08 05:12:48;;;;;;;6.97;3.05;;;15.60;57.30;;;;;;5050839;28;20050;-66
2021/05/08 05:15:16;;;;;;;4.93;2.60;;;15.60;57.10;;;;;;5053060;28;20071;-65
2021/05/08 05:17:42;;;;;;;5.45;2.60;;;15.70;56.90;;;;;;5055118;28;20028;-66
2021/05/08 05:20:08;;;;;;;4.38;2.53;;;15.70;56.80;;;;;;5048307;28;20479;-65
2021/05/08 05:22:34;;;;;;;4.18;2.63;;;15.80;56.70;;;;;;5080995;22;20443;-61
2021/05/08 05:24:59;;;;;;;4.47;2.80;;;15.80;56.50;;;;;;5039358;28;20032;-62
2021/05/08 05:27:25;;;;;;;5.30;2.72;;;15.80;56.40;;;;;;5046049;28;20021;-62
2021/05/08 05:29:50;;;;;;;4.70;2.50;;;15.80;56.30;;;;;;5051629;28;20024;-61
2021/05/08 05:32:16;;;;;;;5.68;2.42;;;15.90;56.10;;;;;;5049499;28;20025;-62
2021/05/08 05:34:41;;;;;;;5.05;2.80;;;15.90;55.80;;;;;;5044882;28;20439;-62
2021/05/08 05:37:07;;;;;;;6.43;3.03;;;16.00;55.80;;;;;;5039677;28;20296;-62
2021/05/08 05:39:33;;;;;;;10.35;2.83;;;16.00;55.70;;;;;;5031758;28;20028;-61
2021/05/08 05:41:58;;;;;;;6.68;3.13;;;16.10;55.50;;;;;;5040432;28;20018;-61
2021/05/08 05:44:24;;;;;;;6.85;2.72;;;16.20;55.50;;;;;;5043053;28;20090;-61
2021/05/08 05:46:49;;;;;;;4.97;2.50;;;16.30;55.30;;;;;;5046876;28;20033;-61
2021/05/08 05:49:15;;;;;;;7.13;2.58;;;16.30;55.40;;;;;;5034030;28;20037;-62
2021/05/08 05:51:40;;;;;;;8.13;3.10;;;16.30;55.20;;;;;;5031366;28;20032;-61
2021/05/08 05:54:06;;;;;;;6.00;2.90;;;16.40;55.10;;;;;;5013438;28;20492;-61
2021/05/08 05:56:31;;;;;;;4.78;2.53;;;16.40;54.80;;;;;;5032439;28;20034;-61
2021/05/08 05:58:57;;;;;;;5.13;2.53;;;16.50;54.70;;;;;;5031426;28;20106;-61
2021/05/08 06:01:22;;;;;;;5.38;2.72;;;16.60;54.50;;;;;;5031355;28;20388;-62
2021/05/08 06:03:48;;;;;;;5.22;2.60;;;16.60;54.30;;;;;;5032344;28;20025;-62
2021/05/08 06:06:13;;;;;;;4.90;2.70;;;16.70;54.10;;;;;;5030981;28;20049;-62
2021/05/08 06:08:39;;;;;;;5.88;2.58;;;16.80;54.00;;;;;;5014631;28;20455;-61
2021/05/08 06:11:05;;;;;;;6.97;3.45;;;16.90;54.00;;;;;;5015835;28;20031;-61
2021/05/08 06:13:32;;;;;;;5.55;2.90;;;16.90;53.80;;;;;;5030025;28;20553;-62
2021/05/08 06:16:03;;;;;;;11.73;3.63;;;17.00;53.50;;;;;;5036958;28;20492;-62
2021/05/08 06:18:29;;;;;;;5.30;3.00;;;17.10;53.30;;;;;;5049179;28;20587;-61
2021/05/08 06:20:55;;;;;;;6.72;3.53;;;17.20;53.10;;;;;;5052573;28;20025;-62
2021/05/08 06:23:20;;;;;;;8.00;3.53;;;17.30;53.10;;;;;;5037137;28;20095;-62
2021/05/08 06:25:46;;;;;;;6.60;2.78;;;17.40;52.80;;;;;;5036207;28;20032;-63
2021/05/08 06:28:12;;;;;;;6.13;3.50;;;17.50;52.40;;;;;;5050521;28;20025;-63
2021/05/08 06:30:38;;;;;;;5.43;3.00;;;17.40;52.10;;;;;;5042827;28;20033;-66
2021/05/08 06:33:04;;;;;;;6.05;2.55;;;17.70;52.20;;;;;;5048266;28;20043;-64
2021/05/08 06:35:30;;;;;;;7.45;3.20;;;17.70;52.10;;;;;;5047254;28;20548;-64
2021/05/08 06:37:55;;;;;;;7.30;3.17;;;17.80;51.70;;;;;;5028653;28;20061;-63
2021/05/08 06:40:21;;;;;;;8.73;3.25;;;17.70;51.60;;;;;;5029664;28;20120;-64
2021/05/08 06:42:47;;;;;;;6.10;2.88;;;17.70;51.90;;;;;;5047690;28;20036;-64
2021/05/08 06:45:12;;;;;;;7.25;3.15;;;17.70;51.90;;;;;;5048178;28;20033;-62
2021/05/08 06:47:39;;;;;;;7.93;3.65;;;17.60;51.90;;;;;;5045781;28;20040;-63
2021/05/08 06:50:05;;;;;;;6.07;3.17;;;17.70;52.00;;;;;;5041630;28;20078;-64
2021/05/08 06:52:31;;;;;;;6.82;3.35;;;17.80;51.60;;;;;;5023371;28;20028;-65
2021/05/08 06:54:57;;;;;;;5.75;2.60;;;17.70;51.60;;;;;;5022677;28;20736;-64
2021/05/08 06:57:23;;;;;;;5.18;2.88;;;17.70;51.70;;;;;;5033231;28;20067;-64
2021/05/08 06:59:48;;;;;;;7.38;3.70;;;17.60;51.80;;;;;;5038369;28;20029;-63
2021/05/08 07:02:14;;;;;;;6.20;3.15;;;17.60;52.10;;;;;;5018382;28;20049;-64
2021/05/08 07:04:39;;;;;;;7.68;3.65;;;17.50;52.00;;;;;;5034004;28;20028;-63
2021/05/08 07:07:05;;;;;;;6.55;2.90;;;17.60;52.20;;;;;;5034417;28;20037;-65
2021/05/08 07:09:31;;;;;;;11.85;2.90;;;17.60;52.10;;;;;;5036080;28;20419;-64
2021/05/08 07:11:56;;;;;;;8.38;3.70;;;17.70;52.10;;;;;;5037415;28;20029;-67
2021/05/08 07:14:22;;;;;;;8.63;3.05;;;17.90;51.70;;;;;;5016467;28;20056;-65
2021/05/08 07:16:47;;;;;;;6.20;2.35;;;18.00;51.10;;;;;;5035239;28;20033;-64
2021/05/08 07:19:13;;;;;;;5.85;2.67;;;18.10;50.90;;;;;;5036596;28;20025;-66
2021/05/08 07:21:38;;;;;;;9.65;3.00;;;18.30;50.70;;;;;;5017055;28;20083;-65
2021/05/08 07:24:06;;;;;;;5.88;2.83;;;18.40;50.40;;;;;;5036655;28;20052;-65
2021/05/08 07:26:32;;;;;;;6.03;2.63;;;18.50;50.20;;;;;;5037364;28;20094;-67
2021/05/08 07:28:59;;;;;;;6.50;2.95;;;18.60;49.80;;;;;;5035797;28;20021;-64
2021/05/08 07:31:25;;;;;;;5.20;2.63;;;18.70;49.50;;;;;;5037700;28;20048;-63
2021/05/08 07:33:52;;;;;;;6.70;2.97;;;18.70;49.30;;;;;;5035871;28;20080;-67
2021/05/08 07:36:18;;;;;;;9.88;4.65;;;18.80;49.00;;;;;;5036993;28;20642;-65
2021/05/08 07:38:44;;;;;;;9.15;3.03;;;18.80;49.10;;;;;;5017292;28;20085;-63
2021/05/08 07:41:09;;;;;;;7.22;3.25;;;18.70;49.00;;;;;;5018273;28;20112;-65
2021/05/08 07:43:35;;;;;;;6.93;2.92;;;18.70;49.00;;;;;;5012710;28;20025;-64
2021/05/08 07:46:00;;;;;;;8.65;2.50;;;18.70;49.20;;;;;;5013814;28;20465;-63
2021/05/08 07:48:27;;;;;;;6.03;2.60;;;18.80;49.10;;;;;;5013633;28;20021;-64
2021/05/08 07:50:53;;;;;;;8.30;2.92;;;18.80;49.00;;;;;;5017744;28;20049;-64
2021/05/08 07:53:18;;;;;;;4.70;2.35;;;18.80;48.80;;;;;;5014608;28;20052;-64
2021/05/08 07:55:44;;;;;;;4.88;2.40;;;18.90;48.70;;;;;;5014608;28;20056;-64
2021/05/08 07:58:09;;;;;;;6.47;2.65;;;18.90;48.70;;;;;;5031365;28;20105;-64
2021/05/08 08:00:35;;;;;;;4.13;2.10;;;19.00;48.60;;;;;;5037725;28;20095;-64
2021/05/08 08:03:01;;;;;;;5.40;2.40;;;19.00;48.50;;;;;;5028146;28;20071;-64
2021/05/08 08:05:27;;;;;;;4.63;2.25;;;19.10;48.50;;;;;;5045529;28;20923;-64
2021/05/08 08:07:53;;;;;;;6.60;2.50;;;19.10;48.40;;;;;;5046203;28;20025;-63
2021/05/08 08:10:19;;;;;;;5.95;2.50;;;19.10;48.40;;;;;;5027740;28;20021;-65
2021/05/08 08:12:44;;;;;;;5.43;2.63;;;19.10;48.40;;;;;;5036409;28;20484;-65
2021/05/08 08:15:12;;;;;;;4.93;2.38;;;19.00;48.40;;;;;;5039105;28;20029;-63
2021/05/08 08:17:38;;;;;;;5.25;3.05;;;19.00;48.80;;;;;;5023017;28;20017;-64
2021/05/08 08:20:05;;;;;;;6.05;2.85;;;19.00;48.50;;;;;;5028482;28;20118;-65
2021/05/08 08:22:31;;;;;;;5.30;2.40;;;19.00;48.20;;;;;;5026995;28;20036;-65
2021/05/08 08:24:57;;;;;;;6.82;2.65;;;18.90;48.20;;;;;;5046034;28;20666;-63
2021/05/08 08:27:23;;;;;;;6.05;2.30;;;18.90;48.50;;;;;;5027753;28;20949;-64
2021/05/08 08:29:49;;;;;;;7.47;2.60;;;18.90;48.60;;;;;;5040361;28;20024;-66
2021/05/08 08:32:15;;;;;;;13.45;5.53;;;19.00;48.70;;;;;;5040805;28;20510;-64
2021/05/08 08:34:41;;;;;;;24.70;5.32;;;19.00;44.10;;;;;;5023329;28;20393;-66
2021/05/08 08:37:07;;;;;;;11.63;5.10;;;18.90;46.20;;;;;;5043408;28;20119;-66
2021/05/08 08:39:33;;;;;;;11.95;5.38;;;19.00;45.80;;;;;;5045112;28;20122;-65
2021/05/08 08:41:59;;;;;;;9.52;5.07;;;19.00;45.10;;;;;;5044546;28;20025;-64
2021/05/08 08:44:24;;;;;;;10.20;5.22;;;19.10;45.40;;;;;;5036417;28;20108;-66
2021/05/08 08:46:51;;;;;;;10.02;4.75;;;19.30;45.40;;;;;;5010527;28;20037;-64
2021/05/08 08:49:17;;;;;;;10.15;4.82;;;19.40;45.20;;;;;;5041361;28;20072;-70
2021/05/08 08:51:44;;;;;;;8.68;4.35;;;19.60;45.30;;;;;;5024484;28;20114;-65
2021/05/08 08:54:11;;;;;;;12.98;4.40;;;19.60;45.30;;;;;;5025644;28;20036;-62
2021/05/08 08:56:40;;;;;;;9.38;4.05;;;19.60;45.90;;;;;;5041668;28;20044;-66
2021/05/08 09:01:52;;;;;;;9.98;4.10;;;19.50;44.70;;;;;;5051300;28;20044;-64
2021/05/08 09:04:18;;;;;;;12.32;4.07;;;19.50;44.90;;;;;;5035176;28;20385;-70
2021/05/08 09:06:46;;;;;;;11.57;4.60;;;19.60;45.20;;;;;;5034054;28;20025;-71
2021/05/08 09:09:13;;;;;;;12.57;4.20;;;19.80;44.40;;;;;;5016438;28;20499;-69
2021/05/08 09:11:49;;;;;;;7.72;4.45;;;19.80;44.30;;;;;;5015538;28;20037;-70
2021/05/08 09:14:25;;;;;;;10.27;5.03;;;19.80;44.10;;;;;;5008306;28;20029;-70
2021/05/08 09:17:11;;;;;;;10.52;5.70;;;19.90;43.90;;;;;;5037898;28;20033;-71
2021/05/08 09:19:46;;;;;;;10.85;4.78;;;19.90;43.00;;;;;;5046721;28;20445;-75
2021/05/08 09:22:24;;;;;;;13.13;5.88;;;19.80;43.30;;;;;;5043086;28;20078;-71
2021/05/08 09:25:11;;;;;;;11.20;6.45;;;19.90;42.80;;;;;;5043849;28;20082;-71
2021/05/08 09:27:48;;;;;;;10.80;6.18;;;19.90;41.70;;;;;;5044401;28;20032;-71
2021/05/08 09:30:19;;;;;;;12.32;6.53;;;19.90;41.20;;;;;;5044798;28;20025;-70
2021/05/08 09:32:46;;;;;;;13.20;7.60;;;19.90;41.30;;;;;;5044542;28;20017;-71
2021/05/08 09:35:23;;;;;;;11.35;7.38;;;19.90;41.10;;;;;;5044487;28;20037;-72
2021/05/08 09:37:50;;;;;;;10.07;7.00;;;19.90;40.90;;;;;;5026943;28;20037;-71
2021/05/08 09:40:19;;;;;;;9.38;6.30;;;19.90;40.30;;;;;;5031738;28;20115;-71
2021/05/08 09:42:47;;;;;;;11.02;6.88;;;19.90;40.10;;;;;;5024228;28;20037;-71
2021/05/08 09:45:14;;;;;;;11.27;6.55;;;19.90;39.80;;;;;;5043766;28;20562;-72
2021/05/08 09:47:40;;;;;;;11.43;6.60;;;19.90;39.50;;;;;;5027006;28;20478;-71
2021/05/08 09:50:06;;;;;;;10.45;6.82;;;19.90;39.90;;;;;;5043993;28;20029;-70
2021/05/08 09:52:41;;;;;;;11.18;6.25;;;19.80;39.30;;;;;;5044697;28;20024;-72
2021/05/08 09:55:07;;;;;;;8.85;5.63;;;19.80;39.60;;;;;;5043876;28;20488;-72
2021/05/08 09:57:33;;;;;;;10.20;6.35;;;19.90;39.30;;;;;;5044564;28;20029;-72
2021/05/08 09:59:58;;;;;;;9.23;5.90;;;19.90;39.40;;;;;;5043585;28;20021;-71
2021/05/08 10:02:24;;;;;;;10.48;5.43;;;19.80;39.00;;;;;;5044327;28;20108;-71
2021/05/08 10:04:56;;;;;;;10.95;5.93;;;19.80;39.50;;;;;;5043342;28;20036;-70
2021/05/08 10:07:28;;;;;;;11.20;5.25;;;19.70;39.30;;;;;;5043923;28;20025;-70
2021/05/08 10:09:57;;;;;;;9.70;5.38;;;19.70;39.90;;;;;;5026669;28;20057;-70
2021/05/08 10:12:25;;;;;;;8.45;4.80;;;19.70;39.50;;;;;;5032554;28;20045;-70
2021/05/08 10:14:53;;;;;;;10.73;4.82;;;19.60;39.20;;;;;;5025653;28;20025;-69
2021/05/08 10:17:23;;;;;;;8.75;4.72;;;19.60;39.40;;;;;;5027373;28;20029;-71
2021/05/08 10:19:51;;;;;;;9.75;4.53;;;19.60;40.10;;;;;;5024401;28;20033;-68
2021/05/08 10:22:18;;;;;;;11.32;4.28;;;19.50;40.40;;;;;;5006463;28;20489;-67
2021/05/08 10:24:45;;;;;;;8.13;3.67;;;19.50;41.20;;;;;;5005819;28;20237;-68
2021/05/08 10:27:12;;;;;;;9.73;4.15;;;19.50;41.50;;;;;;5022710;28;20032;-68
2021/05/08 10:29:46;;;;;;;7.85;3.53;;;19.50;41.70;;;;;;5041866;28;20041;-69
2021/05/08 10:32:14;;;;;;;6.95;3.33;;;19.50;42.30;;;;;;5021194;28;20031;-69
2021/05/08 10:34:59;;;;;;;9.60;3.72;;;19.50;42.40;;;;;;5044201;28;20028;-68
2021/05/08 10:37:26;;;;;;;11.05;3.78;;;19.60;42.60;;;;;;5049908;28;20531;-69
2021/05/08 10:40:05;;;;;;;6.82;3.10;;;19.50;42.40;;;;;;5022016;28;20033;-69
2021/05/08 10:42:31;;;;;;;7.55;3.33;;;19.50;42.70;;;;;;5043861;28;20025;-69
2021/05/08 10:44:58;;;;;;;8.07;2.92;;;19.50;43.20;;;;;;5021549;28;20025;-68
2021/05/08 10:47:23;;;;;;;6.60;3.10;;;19.40;43.20;;;;;;5025785;28;20036;-71
2021/05/08 10:50:21;;;;;;;6.95;2.88;;;19.40;43.10;;;;;;5043709;28;20537;-68
2021/05/08 10:52:58;;;;;;;8.13;3.38;;;19.30;42.90;;;;;;5039658;28;20021;-67
2021/05/08 10:55:24;;;;;;;7.97;3.33;;;19.30;43.70;;;;;;5039546;28;20531;-68
2021/05/08 10:58:24;;;;;;;5.95;2.88;;;19.30;43.50;;;;;;5045646;28;20053;-68
2021/05/08 11:00:56;;;;;;;6.45;3.13;;;19.30;44.80;;;;;;5027226;28;20029;-69
2021/05/08 11:03:23;;;;;;;6.47;2.70;;;19.30;44.30;;;;;;5009442;28;20033;-71
2021/05/08 11:06:03;;;;;;;6.30;2.95;;;19.30;44.20;;;;;;5009580;28;20512;-67
2021/05/08 11:08:29;;;;;;;7.10;2.50;;;19.40;44.10;;;;;;5027646;28;20151;-68
2021/05/08 11:10:59;;;;;;;4.53;2.40;;;19.50;44.30;;;;;;5009260;28;20555;-68
2021/05/08 11:13:27;;;;;;;5.75;2.53;;;19.60;43.70;;;;;;5026989;28;20048;-68
2021/05/08 11:15:55;;;;;;;5.88;2.15;;;19.60;44.10;;;;;;5027010;28;20115;-68
2021/05/08 11:18:30;;;;;;;9.10;2.33;;;19.70;43.70;;;;;;5028705;28;20159;-69
2021/05/08 11:20:56;;;;;;;5.45;2.05;;;19.80;43.50;;;;;;5051654;28;20059;-68
2021/05/08 11:23:21;;;;;;;7.63;2.47;;;19.70;43.60;;;;;;5043465;28;20057;-68
2021/05/08 11:25:47;;;;;;;12.18;2.85;;;19.80;43.80;;;;;;5033017;28;20052;-70
2021/05/08 11:28:12;;;;;;;5.40;2.00;;;19.80;43.90;;;;;;5036124;28;20029;-68
2021/05/08 11:30:51;;;;;;;4.40;2.03;;;19.80;43.70;;;;;;5038345;28;20040;-68
2021/05/08 11:33:26;;;;;;;4.78;1.90;;;19.90;43.50;;;;;;5037770;28;20377;-68
2021/05/08 11:36:02;;;;;;;5.65;2.13;;;19.80;43.40;;;;;;5037503;28;20100;-69
2021/05/08 11:38:27;;;;;;;6.90;2.25;;;19.80;43.50;;;;;;5038017;28;20017;-67
2021/05/08 11:40:53;;;;;;;5.15;2.10;;;19.80;43.80;;;;;;5039840;28;20033;-68
2021/05/08 11:43:28;;;;;;;9.18;2.05;;;19.80;43.20;;;;;;5036206;28;20028;-67
2021/05/08 11:45:54;;;;;;;6.32;1.95;;;19.70;43.90;;;;;;5027328;28;20435;-67
2021/05/08 11:48:20;;;;;;;10.23;2.10;;;19.60;44.10;;;;;;5021911;28;20083;-68
2021/05/08 11:50:49;;;;;;;10.00;2.20;;;19.60;43.40;;;;;;5050466;28;20037;-66
2021/05/08 11:53:18;;;;;;;8.27;2.05;;;19.50;44.10;;;;;;5054026;23;20420;-67
2021/05/08 11:55:45;;;;;;;7.00;1.90;;;19.50;44.50;;;;;;5047935;28;20036;-70
2021/05/08 11:58:11;;;;;;;9.18;1.80;;;19.40;44.50;;;;;;5066521;28;20446;-72
2021/05/08 12:00:37;;;;;;;4.82;1.80;;;19.30;44.30;;;;;;5049652;28;20025;-68
2021/05/08 12:03:16;;;;;;;5.20;1.90;;;19.30;44.90;;;;;;5070008;28;20032;-70
2021/05/08 12:05:43;;;;;;;4.78;1.70;;;19.30;45.00;;;;;;5034779;28;20021;-71
2021/05/08 12:08:09;;;;;;;4.55;1.45;;;19.20;44.80;;;;;;5032884;28;20051;-69
2021/05/08 12:10:43;;;;;;;6.88;1.67;;;19.20;44.90;;;;;;5051179;28;20469;-70
2021/05/08 12:13:09;;;;;;;4.53;1.67;;;19.10;44.90;;;;;;5032763;28;20120;-74
2021/05/08 12:15:37;;;;;;;7.22;1.80;;;19.10;44.90;;;;;;5049645;28;20460;-70
2021/05/08 12:18:04;;;;;;;7.50;1.70;;;19.10;44.40;;;;;;5031018;28;20033;-71
2021/05/08 12:20:41;;;;;;;7.47;1.70;;;19.10;44.30;;;;;;5050221;28;20021;-68
2021/05/08 12:23:14;;;;;;;7.25;1.67;;;19.10;43.80;;;;;;5046850;28;20079;-70
2021/05/08 12:25:40;;;;;;;5.93;1.40;;;19.10;44.00;;;;;;5032991;28;20020;-69
2021/05/08 12:28:16;;;;;;;3.10;1.67;;;19.20;43.30;;;;;;5047350;28;20109;-70
2021/05/08 12:30:50;;;;;;;4.90;1.92;;;19.10;43.80;;;;;;5033786;28;20171;-69
2021/05/08 12:33:19;;;;;;;5.40;1.40;;;19.10;43.30;;;;;;5051036;28;20013;-70
2021/05/08 12:35:46;;;;;;;5.15;1.30;;;19.10;44.50;;;;;;5047553;28;20021;-68
2021/05/08 12:38:18;;;;;;;4.57;1.40;;;19.10;44.40;;;;;;5029114;28;20436;-69
2021/05/08 12:40:44;;;;;;;3.83;1.27;;;19.00;44.40;;;;;;5033126;28;20032;-70
2021/05/08 12:43:10;;;;;;;4.60;1.30;;;19.00;44.20;;;;;;5033045;28;20112;-68
2021/05/08 12:46:03;;;;;;;4.25;1.40;;;19.00;45.00;;;;;;5050742;28;20052;-69
2021/05/08 12:48:40;;;;;;;4.60;1.55;;;18.90;45.20;;;;;;5051012;28;20017;-67
2021/05/08 12:51:28;;;;;;;5.47;1.40;;;18.90;45.20;;;;;;5050390;28;20032;-68